TDCF/DCF METAR and TAF weather

Enter ICAO airport designator
Station Type Date Time Source
TDCF METAR 2022/08/12 15:00 UTC NOAA

TDCF 121500Z 35005KT 9999 BKN018 31/24 Q1014 RERA


Station Type Date Time Source
TDCF Decoded METAR 2022/08/12 15:00 UTC NOAA

Canefield Airport, Dominica (TDCF) 15-32N 061-24W 5M
Aug 12, 2022 - 11:00 AM EDT / 2022.08.12 1500 UTC
Wind: from the N (350 degrees) at 6 MPH (5 KT):0
Visibility: greater than 7 mile(s):0
Sky conditions: mostly cloudy
Temperature: 87 F (31 C)
Heat index: 95.7 F (35.4 C):1
Dew Point: 75 F (24 C)
Relative Humidity: 66%
Pressure (altimeter): 29.94 in. Hg (1014 hPa)
ob: TDCF 121500Z 35005KT 9999 BKN018 31/24 Q1014 RERA
cycle: 15

Station Type Date Time Source
TDCF TAF 2012/05/01 18:15 UTC NOAA

TAF TDCF 011600Z 0118/0218 110010KT 9999 SCT018 BKN030
TEMPO 0118/0206 6000 SHRA BKN014 BKN070

Example: see airport list